sensor_id;sensor_type;location;lat;lon;timestamp;pressure;altitude;pressure_sealevel;temperature;humidity
24666;BME280;29726;53.532;-1.478;2023-02-19T00:02:30;100763.88;;;15.63;100.00
24666;BME280;29726;53.532;-1.478;2023-02-19T00:05:15;100740.25;;;15.55;100.00
24666;BME280;29726;53.532;-1.478;2023-02-19T00:07:59;100727.19;;;15.52;100.00
24666;BME280;29726;53.532;-1.478;2023-02-19T00:10:43;100752.78;;;15.54;100.00
24666;BME280;29726;53.532;-1.478;2023-02-19T00:13:27;100742.78;;;15.53;100.00
24666;BME280;29726;53.532;-1.478;2023-02-19T00:16:17;100773.75;;;15.53;100.00
24666;BME280;29726;53.532;-1.478;2023-02-19T00:19:04;100772.75;;;15.56;100.00
24666;BME280;29726;53.532;-1.478;2023-02-19T00:21:50;100776.34;;;15.56;100.00
24666;BME280;29726;53.532;-1.478;2023-02-19T00:24:35;100754.75;;;15.48;100.00
24666;BME280;29726;53.532;-1.478;2023-02-19T00:27:19;100763.69;;;15.46;100.00
24666;BME280;29726;53.532;-1.478;2023-02-19T00:30:03;100768.56;;;15.46;100.00
24666;BME280;29726;53.532;-1.478;2023-02-19T00:32:50;100764.47;;;15.47;100.00
24666;BME280;29726;53.532;-1.478;2023-02-19T00:35:35;100788.56;;;15.53;100.00
24666;BME280;29726;53.532;-1.478;2023-02-19T00:38:19;100778.75;;;15.43;100.00
24666;BME280;29726;53.532;-1.478;2023-02-19T00:41:03;100769.75;;;15.39;100.00
24666;BME280;29726;53.532;-1.478;2023-02-19T00:44:04;100783.94;;;15.50;100.00
24666;BME280;29726;53.532;-1.478;2023-02-19T00:46:48;100767.28;;;15.47;100.00
24666;BME280;29726;53.532;-1.478;2023-02-19T00:49:32;100771.78;;;15.39;100.00
24666;BME280;29726;53.532;-1.478;2023-02-19T00:52:16;100790.00;;;15.43;100.00
24666;BME280;29726;53.532;-1.478;2023-02-19T00:55:00;100808.91;;;15.43;100.00
24666;BME280;29726;53.532;-1.478;2023-02-19T00:57:44;100799.09;;;15.33;100.00
24666;BME280;29726;53.532;-1.478;2023-02-19T01:00:28;100815.25;;;15.38;100.00
24666;BME280;29726;53.532;-1.478;2023-02-19T01:03:12;100829.59;;;15.40;100.00
24666;BME280;29726;53.532;-1.478;2023-02-19T01:05:56;100825.78;;;15.43;100.00
24666;BME280;29726;53.532;-1.478;2023-02-19T01:08:41;100833.47;;;15.42;100.00
24666;BME280;29726;53.532;-1.478;2023-02-19T01:11:25;100840.38;;;15.41;100.00
24666;BME280;29726;53.532;-1.478;2023-02-19T01:14:10;100854.44;;;15.41;100.00
24666;BME280;29726;53.532;-1.478;2023-02-19T01:16:54;100862.31;;;15.37;100.00
24666;BME280;29726;53.532;-1.478;2023-02-19T01:19:38;100891.50;;;15.40;100.00
24666;BME280;29726;53.532;-1.478;2023-02-19T01:22:22;100852.38;;;15.07;100.00
24666;BME280;29726;53.532;-1.478;2023-02-19T01:25:06;100895.81;;;15.35;100.00
24666;BME280;29726;53.532;-1.478;2023-02-19T01:27:50;100908.78;;;15.33;100.00
24666;BME280;29726;53.532;-1.478;2023-02-19T01:30:35;100922.66;;;15.36;100.00
24666;BME280;29726;53.532;-1.478;2023-02-19T01:33:21;100920.31;;;15.35;100.00
24666;BME280;29726;53.532;-1.478;2023-02-19T01:36:06;100931.59;;;15.35;100.00
24666;BME280;29726;53.532;-1.478;2023-02-19T01:38:50;100901.72;;;15.23;100.00
24666;BME280;29726;53.532;-1.478;2023-02-19T01:41:37;100921.31;;;15.32;100.00
24666;BME280;29726;53.532;-1.478;2023-02-19T01:47:06;100913.97;;;15.20;100.00
24666;BME280;29726;53.532;-1.478;2023-02-19T01:49:53;100928.09;;;15.25;100.00
24666;BME280;29726;53.532;-1.478;2023-02-19T01:52:40;100929.56;;;15.21;100.00
24666;BME280;29726;53.532;-1.478;2023-02-19T01:55:24;100922.31;;;15.14;100.00
24666;BME280;29726;53.532;-1.478;2023-02-19T01:58:09;100943.91;;;15.23;100.00
24666;BME280;29726;53.532;-1.478;2023-02-19T02:00:53;100942.28;;;15.16;100.00
24666;BME280;29726;53.532;-1.478;2023-02-19T02:03:39;100960.19;;;15.19;100.00
24666;BME280;29726;53.532;-1.478;2023-02-19T02:06:34;100914.22;;;14.88;100.00
24666;BME280;29726;53.532;-1.478;2023-02-19T02:09:27;100920.03;;;14.84;100.00
24666;BME280;29726;53.532;-1.478;2023-02-19T02:12:30;100951.22;;;15.00;100.00
24666;BME280;29726;53.532;-1.478;2023-02-19T02:15:15;100967.22;;;15.09;100.00
24666;BME280;29726;53.532;-1.478;2023-02-19T02:18:10;100977.19;;;15.10;100.00
24666;BME280;29726;53.532;-1.478;2023-02-19T02:24:11;100984.28;;;15.05;100.00
24666;BME280;29726;53.532;-1.478;2023-02-19T02:27:54;100986.31;;;15.05;100.00
24666;BME280;29726;53.532;-1.478;2023-02-19T02:33:38;100982.56;;;14.94;100.00
24666;BME280;29726;53.532;-1.478;2023-02-19T02:36:31;100991.84;;;14.99;100.00
24666;BME280;29726;53.532;-1.478;2023-02-19T02:39:18;101011.72;;;14.96;100.00
24666;BME280;29726;53.532;-1.478;2023-02-19T02:42:03;101000.19;;;14.80;100.00
24666;BME280;29726;53.532;-1.478;2023-02-19T02:45:30;101026.28;;;14.95;100.00
24666;BME280;29726;53.532;-1.478;2023-02-19T02:51:58;101055.84;;;14.90;100.00
24666;BME280;29726;53.532;-1.478;2023-02-19T02:54:35;101056.53;;;14.85;100.00
24666;BME280;29726;53.532;-1.478;2023-02-19T02:57:38;101025.00;;;14.52;100.00
24666;BME280;29726;53.532;-1.478;2023-02-19T03:00:24;101084.34;;;14.83;100.00
24666;BME280;29726;53.532;-1.478;2023-02-19T03:03:31;101041.53;;;14.50;100.00
24666;BME280;29726;53.532;-1.478;2023-02-19T03:06:16;101097.31;;;14.81;100.00
24666;BME280;29726;53.532;-1.478;2023-02-19T03:09:11;101103.59;;;14.76;100.00
24666;BME280;29726;53.532;-1.478;2023-02-19T03:12:02;101107.50;;;14.78;100.00
24666;BME280;29726;53.532;-1.478;2023-02-19T03:15:08;101114.56;;;14.74;100.00
24666;BME280;29726;53.532;-1.478;2023-02-19T03:18:15;101125.63;;;14.77;100.00
24666;BME280;29726;53.532;-1.478;2023-02-19T03:21:20;101115.03;;;14.72;100.00
24666;BME280;29726;53.532;-1.478;2023-02-19T03:24:07;101070.38;;;14.36;100.00
24666;BME280;29726;53.532;-1.478;2023-02-19T03:27:13;101108.91;;;14.59;100.00
24666;BME280;29726;53.532;-1.478;2023-02-19T03:30:04;101120.72;;;14.63;100.00
24666;BME280;29726;53.532;-1.478;2023-02-19T03:33:07;101121.03;;;14.65;100.00
24666;BME280;29726;53.532;-1.478;2023-02-19T03:35:56;101105.50;;;14.55;100.00
24666;BME280;29726;53.532;-1.478;2023-02-19T03:38:52;101117.72;;;14.52;100.00
24666;BME280;29726;53.532;-1.478;2023-02-19T03:42:04;101128.75;;;14.56;100.00
24666;BME280;29726;53.532;-1.478;2023-02-19T03:45:13;101136.72;;;14.57;100.00
24666;BME280;29726;53.532;-1.478;2023-02-19T03:48:11;101142.03;;;14.55;100.00
24666;BME280;29726;53.532;-1.478;2023-02-19T03:51:19;101136.59;;;14.52;100.00
24666;BME280;29726;53.532;-1.478;2023-02-19T03:54:22;101151.91;;;14.51;100.00
24666;BME280;29726;53.532;-1.478;2023-02-19T03:57:20;101160.97;;;14.46;100.00
24666;BME280;29726;53.532;-1.478;2023-02-19T04:00:17;101173.00;;;14.46;100.00
24666;BME280;29726;53.532;-1.478;2023-02-19T04:05:54;101175.41;;;14.39;100.00
24666;BME280;29726;53.532;-1.478;2023-02-19T04:08:45;101186.13;;;14.40;100.00
24666;BME280;29726;53.532;-1.478;2023-02-19T04:11:31;101173.88;;;14.29;100.00
24666;BME280;29726;53.532;-1.478;2023-02-19T04:14:32;101181.47;;;14.37;100.00
24666;BME280;29726;53.532;-1.478;2023-02-19T04:17:23;101188.81;;;14.35;100.00
24666;BME280;29726;53.532;-1.478;2023-02-19T04:20:10;101211.00;;;14.33;100.00
24666;BME280;29726;53.532;-1.478;2023-02-19T04:22:55;101220.06;;;14.28;100.00
24666;BME280;29726;53.532;-1.478;2023-02-19T04:25:42;101215.72;;;14.27;100.00
24666;BME280;29726;53.532;-1.478;2023-02-19T04:28:28;101218.06;;;14.28;100.00
24666;BME280;29726;53.532;-1.478;2023-02-19T04:31:12;101201.06;;;14.23;100.00
24666;BME280;29726;53.532;-1.478;2023-02-19T04:33:56;101202.78;;;14.20;100.00
24666;BME280;29726;53.532;-1.478;2023-02-19T04:36:40;101209.94;;;14.21;100.00
24666;BME280;29726;53.532;-1.478;2023-02-19T04:39:24;101163.44;;;13.88;100.00
24666;BME280;29726;53.532;-1.478;2023-02-19T04:42:09;101217.91;;;14.14;100.00
24666;BME280;29726;53.532;-1.478;2023-02-19T04:44:53;101237.44;;;14.17;100.00
24666;BME280;29726;53.532;-1.478;2023-02-19T04:47:37;101245.09;;;14.08;100.00
24666;BME280;29726;53.532;-1.478;2023-02-19T04:50:21;101253.06;;;14.09;100.00
24666;BME280;29726;53.532;-1.478;2023-02-19T04:53:06;101252.75;;;14.07;100.00
24666;BME280;29726;53.532;-1.478;2023-02-19T04:55:50;101240.16;;;13.94;100.00
24666;BME280;29726;53.532;-1.478;2023-02-19T04:58:36;101263.19;;;14.07;100.00
24666;BME280;29726;53.532;-1.478;2023-02-19T05:01:20;101252.44;;;14.05;100.00
24666;BME280;29726;53.532;-1.478;2023-02-19T05:04:04;101246.50;;;14.03;100.00
24666;BME280;29726;53.532;-1.478;2023-02-19T05:06:48;101249.78;;;14.02;100.00
24666;BME280;29726;53.532;-1.478;2023-02-19T05:09:33;101259.78;;;14.03;100.00
24666;BME280;29726;53.532;-1.478;2023-02-19T05:12:17;101267.88;;;14.01;100.00
24666;BME280;29726;53.532;-1.478;2023-02-19T05:15:01;101278.31;;;14.00;100.00
24666;BME280;29726;53.532;-1.478;2023-02-19T05:17:45;101276.47;;;13.97;100.00
24666;BME280;29726;53.532;-1.478;2023-02-19T05:20:29;101275.72;;;13.88;100.00
24666;BME280;29726;53.532;-1.478;2023-02-19T05:23:13;101293.16;;;13.92;100.00
24666;BME280;29726;53.532;-1.478;2023-02-19T05:25:57;101295.84;;;13.86;100.00
24666;BME280;29726;53.532;-1.478;2023-02-19T05:28:41;101314.69;;;13.86;100.00
24666;BME280;29726;53.532;-1.478;2023-02-19T05:31:25;101327.47;;;13.87;100.00
24666;BME280;29726;53.532;-1.478;2023-02-19T05:34:09;101325.78;;;13.80;100.00
24666;BME280;29726;53.532;-1.478;2023-02-19T05:36:53;101329.22;;;13.75;100.00
24666;BME280;29726;53.532;-1.478;2023-02-19T05:39:37;101332.31;;;13.77;100.00
24666;BME280;29726;53.532;-1.478;2023-02-19T05:42:21;101323.78;;;13.72;100.00
24666;BME280;29726;53.532;-1.478;2023-02-19T05:45:05;101346.84;;;13.76;100.00
24666;BME280;29726;53.532;-1.478;2023-02-19T05:47:49;101346.22;;;13.72;100.00
24666;BME280;29726;53.532;-1.478;2023-02-19T05:50:35;101363.06;;;13.72;100.00
24666;BME280;29726;53.532;-1.478;2023-02-19T05:53:19;101347.63;;;13.67;100.00
24666;BME280;29726;53.532;-1.478;2023-02-19T05:56:04;101364.78;;;13.69;100.00
24666;BME280;29726;53.532;-1.478;2023-02-19T06:01:57;101362.91;;;13.57;100.00
24666;BME280;29726;53.532;-1.478;2023-02-19T06:04:41;101366.34;;;13.61;100.00
24666;BME280;29726;53.532;-1.478;2023-02-19T06:07:25;101364.00;;;13.60;100.00
24666;BME280;29726;53.532;-1.478;2023-02-19T06:10:10;101370.41;;;13.60;100.00
24666;BME280;29726;53.532;-1.478;2023-02-19T06:12:55;101366.63;;;13.54;100.00
24666;BME280;29726;53.532;-1.478;2023-02-19T06:15:38;101367.88;;;13.53;100.00
24666;BME280;29726;53.532;-1.478;2023-02-19T06:18:22;101314.09;;;13.19;100.00
24666;BME280;29726;53.532;-1.478;2023-02-19T06:21:08;101386.25;;;13.54;100.00
24666;BME280;29726;53.532;-1.478;2023-02-19T06:23:53;101394.84;;;13.51;100.00
24666;BME280;29726;53.532;-1.478;2023-02-19T06:26:37;101404.66;;;13.46;100.00
24666;BME280;29726;53.532;-1.478;2023-02-19T06:29:21;101403.91;;;13.46;100.00
24666;BME280;29726;53.532;-1.478;2023-02-19T06:32:05;101419.47;;;13.47;100.00
24666;BME280;29726;53.532;-1.478;2023-02-19T06:34:49;101429.13;;;13.46;100.00
24666;BME280;29726;53.532;-1.478;2023-02-19T06:37:33;101404.47;;;13.41;100.00
24666;BME280;29726;53.532;-1.478;2023-02-19T06:40:17;101365.97;;;13.32;100.00
24666;BME280;29726;53.532;-1.478;2023-02-19T06:43:02;101379.69;;;13.30;100.00
24666;BME280;29726;53.532;-1.478;2023-02-19T06:45:45;101416.16;;;13.30;100.00
24666;BME280;29726;53.532;-1.478;2023-02-19T06:48:30;101440.16;;;13.31;100.00
24666;BME280;29726;53.532;-1.478;2023-02-19T06:51:17;101435.66;;;13.34;100.00
24666;BME280;29726;53.532;-1.478;2023-02-19T06:54:02;101402.91;;;13.31;100.00
24666;BME280;29726;53.532;-1.478;2023-02-19T06:56:46;101421.75;;;13.30;100.00
24666;BME280;29726;53.532;-1.478;2023-02-19T06:59:30;101365.84;;;12.88;100.00
24666;BME280;29726;53.532;-1.478;2023-02-19T07:02:14;101426.75;;;13.27;100.00
24666;BME280;29726;53.532;-1.478;2023-02-19T07:04:58;101421.28;;;13.23;100.00
24666;BME280;29726;53.532;-1.478;2023-02-19T07:07:44;101393.22;;;13.14;100.00
24666;BME280;29726;53.532;-1.478;2023-02-19T07:10:28;101415.34;;;13.21;100.00
24666;BME280;29726;53.532;-1.478;2023-02-19T07:13:12;101403.19;;;13.15;100.00
24666;BME280;29726;53.532;-1.478;2023-02-19T07:16:14;101398.38;;;13.16;100.00
24666;BME280;29726;53.532;-1.478;2023-02-19T07:19:00;101374.66;;;12.99;100.00
24666;BME280;29726;53.532;-1.478;2023-02-19T07:21:45;101388.22;;;13.09;100.00
24666;BME280;29726;53.532;-1.478;2023-02-19T07:24:29;101378.06;;;13.03;100.00
24666;BME280;29726;53.532;-1.478;2023-02-19T07:27:13;101378.06;;;13.03;100.00
24666;BME280;29726;53.532;-1.478;2023-02-19T07:29:57;101386.97;;;13.01;100.00
24666;BME280;29726;53.532;-1.478;2023-02-19T07:32:42;101393.03;;;13.00;100.00
24666;BME280;29726;53.532;-1.478;2023-02-19T07:35:27;101386.00;;;12.95;100.00
24666;BME280;29726;53.532;-1.478;2023-02-19T07:38:14;101386.47;;;12.94;100.00
24666;BME280;29726;53.532;-1.478;2023-02-19T07:41:01;101393.63;;;12.95;100.00
24666;BME280;29726;53.532;-1.478;2023-02-19T07:43:45;101397.75;;;12.81;100.00
24666;BME280;29726;53.532;-1.478;2023-02-19T07:46:29;101418.78;;;12.86;100.00
24666;BME280;29726;53.532;-1.478;2023-02-19T07:49:15;101443.78;;;12.93;100.00
24666;BME280;29726;53.532;-1.478;2023-02-19T07:51:59;101461.78;;;12.92;100.00
24666;BME280;29726;53.532;-1.478;2023-02-19T07:54:42;101418.31;;;12.57;100.00
24666;BME280;29726;53.532;-1.478;2023-02-19T07:57:27;101474.25;;;12.91;100.00
24666;BME280;29726;53.532;-1.478;2023-02-19T08:00:12;101464.41;;;12.86;100.00
24666;BME280;29726;53.532;-1.478;2023-02-19T08:02:56;101478.75;;;12.88;100.00
24666;BME280;29726;53.532;-1.478;2023-02-19T08:05:43;101473.41;;;12.81;100.00
24666;BME280;29726;53.532;-1.478;2023-02-19T08:08:28;101457.69;;;12.84;100.00
24666;BME280;29726;53.532;-1.478;2023-02-19T08:11:12;101464.53;;;12.83;100.00
24666;BME280;29726;53.532;-1.478;2023-02-19T08:14:15;101467.66;;;12.85;100.00
24666;BME280;29726;53.532;-1.478;2023-02-19T08:16:59;101464.94;;;12.94;100.00
24666;BME280;29726;53.532;-1.478;2023-02-19T08:19:43;101445.97;;;12.98;100.00
24666;BME280;29726;53.532;-1.478;2023-02-19T08:22:27;101437.56;;;12.98;100.00
24666;BME280;29726;53.532;-1.478;2023-02-19T08:25:11;101440.84;;;13.05;100.00
24666;BME280;29726;53.532;-1.478;2023-02-19T08:27:55;101434.63;;;13.01;100.00
24666;BME280;29726;53.532;-1.478;2023-02-19T08:30:41;101437.31;;;13.14;100.00
24666;BME280;29726;53.532;-1.478;2023-02-19T08:33:27;101432.34;;;13.18;100.00
24666;BME280;29726;53.532;-1.478;2023-02-19T08:36:11;101441.81;;;13.20;100.00
24666;BME280;29726;53.532;-1.478;2023-02-19T08:38:55;101450.09;;;13.24;100.00
24666;BME280;29726;53.532;-1.478;2023-02-19T08:41:39;101431.72;;;13.23;100.00
24666;BME280;29726;53.532;-1.478;2023-02-19T08:44:24;101429.84;;;13.28;100.00
24666;BME280;29726;53.532;-1.478;2023-02-19T08:47:08;101438.16;;;13.41;100.00
24666;BME280;29726;53.532;-1.478;2023-02-19T08:49:51;101440.50;;;13.42;100.00
24666;BME280;29726;53.532;-1.478;2023-02-19T08:52:35;101391.22;;;13.15;100.00
24666;BME280;29726;53.532;-1.478;2023-02-19T08:55:19;101448.28;;;13.47;100.00
24666;BME280;29726;53.532;-1.478;2023-02-19T08:58:04;101457.19;;;13.55;100.00
24666;BME280;29726;53.532;-1.478;2023-02-19T09:00:48;101391.53;;;13.26;100.00
24666;BME280;29726;53.532;-1.478;2023-02-19T09:03:32;101457.19;;;13.64;100.00
24666;BME280;29726;53.532;-1.478;2023-02-19T09:06:18;101460.97;;;13.70;100.00
24666;BME280;29726;53.532;-1.478;2023-02-19T09:09:02;101468.59;;;13.78;100.00
24666;BME280;29726;53.532;-1.478;2023-02-19T09:11:46;101467.22;;;13.83;100.00
24666;BME280;29726;53.532;-1.478;2023-02-19T09:14:33;101451.47;;;13.85;100.00
24666;BME280;29726;53.532;-1.478;2023-02-19T09:17:17;101459.88;;;13.94;100.00
24666;BME280;29726;53.532;-1.478;2023-02-19T09:20:02;101451.78;;;13.96;100.00
24666;BME280;29726;53.532;-1.478;2023-02-19T09:22:46;101451.47;;;14.03;100.00
24666;BME280;29726;53.532;-1.478;2023-02-19T09:25:30;101457.09;;;14.12;100.00
24666;BME280;29726;53.532;-1.478;2023-02-19T09:28:14;101455.53;;;14.20;100.00
24666;BME280;29726;53.532;-1.478;2023-02-19T09:31:11;101378.16;;;13.74;100.00
24666;BME280;29726;53.532;-1.478;2023-02-19T09:33:55;101393.31;;;13.95;100.00
24666;BME280;29726;53.532;-1.478;2023-02-19T09:36:40;101448.06;;;14.35;100.00
24666;BME280;29726;53.532;-1.478;2023-02-19T09:39:23;101434.16;;;14.32;100.00
24666;BME280;29726;53.532;-1.478;2023-02-19T09:42:14;101466.75;;;14.56;100.00
24666;BME280;29726;53.532;-1.478;2023-02-19T09:45:00;101447.06;;;14.56;100.00
24666;BME280;29726;53.532;-1.478;2023-02-19T09:47:47;101446.13;;;14.59;100.00
24666;BME280;29726;53.532;-1.478;2023-02-19T09:50:39;101463.25;;;14.70;100.00
24666;BME280;29726;53.532;-1.478;2023-02-19T09:53:39;101459.66;;;14.79;100.00
24666;BME280;29726;53.532;-1.478;2023-02-19T09:56:26;101442.31;;;14.80;100.00
24666;BME280;29726;53.532;-1.478;2023-02-19T09:59:18;101460.25;;;14.92;100.00
24666;BME280;29726;53.532;-1.478;2023-02-19T10:02:13;101457.09;;;14.98;100.00
24666;BME280;29726;53.532;-1.478;2023-02-19T10:04:58;101451.00;;;15.00;100.00
24666;BME280;29726;53.532;-1.478;2023-02-19T10:07:47;101438.59;;;15.06;100.00
24666;BME280;29726;53.532;-1.478;2023-02-19T10:10:34;101440.94;;;15.08;100.00
24666;BME280;29726;53.532;-1.478;2023-02-19T10:13:21;101468.06;;;15.29;100.00
24666;BME280;29726;53.532;-1.478;2023-02-19T10:16:19;101464.91;;;15.36;100.00
24666;BME280;29726;53.532;-1.478;2023-02-19T10:19:05;101453.94;;;15.38;100.00
24666;BME280;29726;53.532;-1.478;2023-02-19T10:21:51;101458.16;;;15.42;100.00
24666;BME280;29726;53.532;-1.478;2023-02-19T10:24:35;101452.47;;;15.51;100.00
24666;BME280;29726;53.532;-1.478;2023-02-19T10:27:19;101442.47;;;15.50;100.00
24666;BME280;29726;53.532;-1.478;2023-02-19T10:30:05;101462.56;;;15.67;100.00
24666;BME280;29726;53.532;-1.478;2023-02-19T10:33:10;101468.09;;;15.76;100.00
24666;BME280;29726;53.532;-1.478;2023-02-19T10:36:04;101469.50;;;15.80;100.00
24666;BME280;29726;53.532;-1.478;2023-02-19T10:38:49;101420.25;;;15.52;100.00
24666;BME280;29726;53.532;-1.478;2023-02-19T10:41:39;101461.75;;;15.90;100.00
24666;BME280;29726;53.532;-1.478;2023-02-19T10:44:26;101466.53;;;15.98;100.00
24666;BME280;29726;53.532;-1.478;2023-02-19T10:47:18;101446.34;;;16.00;100.00
24666;BME280;29726;53.532;-1.478;2023-02-19T10:50:03;101458.78;;;16.08;100.00
24666;BME280;29726;53.532;-1.478;2023-02-19T10:52:52;101465.63;;;16.16;100.00
24666;BME280;29726;53.532;-1.478;2023-02-19T10:55:37;101475.78;;;16.13;100.00
24666;BME280;29726;53.532;-1.478;2023-02-19T10:58:25;101491.84;;;16.22;100.00
24666;BME280;29726;53.532;-1.478;2023-02-19T11:01:23;101489.34;;;16.24;100.00
24666;BME280;29726;53.532;-1.478;2023-02-19T11:04:16;101476.31;;;16.26;100.00
24666;BME280;29726;53.532;-1.478;2023-02-19T11:07:14;101468.47;;;16.30;100.00
24666;BME280;29726;53.532;-1.478;2023-02-19T11:10:00;101425.66;;;16.03;100.00
24666;BME280;29726;53.532;-1.478;2023-02-19T11:12:47;101451.72;;;16.27;100.00
24666;BME280;29726;53.532;-1.478;2023-02-19T11:15:36;101463.03;;;16.41;100.00
24666;BME280;29726;53.532;-1.478;2023-02-19T11:18:31;101465.69;;;16.45;100.00
24666;BME280;29726;53.532;-1.478;2023-02-19T11:21:28;101472.59;;;16.44;100.00
24666;BME280;29726;53.532;-1.478;2023-02-19T11:24:27;101482.50;;;16.54;100.00
24666;BME280;29726;53.532;-1.478;2023-02-19T11:27:18;101502.34;;;16.59;100.00
24666;BME280;29726;53.532;-1.478;2023-02-19T11:45:34;101501.09;;;16.74;100.00
24666;BME280;29726;53.532;-1.478;2023-02-19T11:48:55;101499.44;;;16.82;100.00
24666;BME280;29726;53.532;-1.478;2023-02-19T11:55:20;101489.63;;;16.92;100.00
24666;BME280;29726;53.532;-1.478;2023-02-19T12:16:42;101474.69;;;17.21;100.00
24666;BME280;29726;53.532;-1.478;2023-02-19T12:19:50;101470.09;;;17.23;100.00
24666;BME280;29726;53.532;-1.478;2023-02-19T12:23:01;101468.63;;;17.28;100.00
24666;BME280;29726;53.532;-1.478;2023-02-19T12:29:12;101473.28;;;17.31;100.00
24666;BME280;29726;53.532;-1.478;2023-02-19T12:35:30;101465.72;;;17.37;100.00
24666;BME280;29726;53.532;-1.478;2023-02-19T12:38:24;101474.75;;;17.26;100.00
24666;BME280;29726;53.532;-1.478;2023-02-19T12:41:19;101471.25;;;17.31;100.00
24666;BME280;29726;53.532;-1.478;2023-02-19T12:44:16;101478.84;;;17.40;100.00
24666;BME280;29726;53.532;-1.478;2023-02-19T12:47:02;101467.19;;;17.32;100.00
24666;BME280;29726;53.532;-1.478;2023-02-19T12:50:02;101475.06;;;17.43;100.00
24666;BME280;29726;53.532;-1.478;2023-02-19T12:52:54;101470.88;;;17.38;100.00
24666;BME280;29726;53.532;-1.478;2023-02-19T12:55:43;101473.00;;;17.43;100.00
24666;BME280;29726;53.532;-1.478;2023-02-19T12:58:36;101448.56;;;17.40;100.00
24666;BME280;29726;53.532;-1.478;2023-02-19T13:01:27;101447.59;;;17.43;100.00
24666;BME280;29726;53.532;-1.478;2023-02-19T13:04:18;101434.53;;;17.46;100.00
24666;BME280;29726;53.532;-1.478;2023-02-19T13:07:13;101436.88;;;17.47;100.00
24666;BME280;29726;53.532;-1.478;2023-02-19T13:12:48;101424.00;;;17.46;100.00
24666;BME280;29726;53.532;-1.478;2023-02-19T13:15:38;101426.44;;;17.53;100.00
24666;BME280;29726;53.532;-1.478;2023-02-19T13:18:38;101412.00;;;17.51;100.00
24666;BME280;29726;53.532;-1.478;2023-02-19T13:21:27;101409.56;;;17.59;100.00
24666;BME280;29726;53.532;-1.478;2023-02-19T13:24:34;101381.75;;;17.52;100.00
24666;BME280;29726;53.532;-1.478;2023-02-19T13:30:59;101388.66;;;17.71;100.00
24666;BME280;29726;53.532;-1.478;2023-02-19T13:36:42;101385.97;;;17.82;100.00
24666;BME280;29726;53.532;-1.478;2023-02-19T13:39:26;101374.88;;;17.78;100.00
24666;BME280;29726;53.532;-1.478;2023-02-19T13:42:25;101387.50;;;17.83;100.00
24666;BME280;29726;53.532;-1.478;2023-02-19T13:45:21;101404.53;;;17.88;100.00
24666;BME280;29726;53.532;-1.478;2023-02-19T13:56:40;101360.59;;;17.87;100.00
24666;BME280;29726;53.532;-1.478;2023-02-19T13:59:36;101370.19;;;17.95;100.00
24666;BME280;29726;53.532;-1.478;2023-02-19T14:02:26;101366.88;;;17.97;100.00
24666;BME280;29726;53.532;-1.478;2023-02-19T14:05:11;101372.00;;;17.98;100.00
24666;BME280;29726;53.532;-1.478;2023-02-19T14:07:56;101355.22;;;17.89;100.00
24666;BME280;29726;53.532;-1.478;2023-02-19T14:10:50;101374.63;;;18.02;100.00
24666;BME280;29726;53.532;-1.478;2023-02-19T14:13:54;101381.06;;;18.02;100.00
24666;BME280;29726;53.532;-1.478;2023-02-19T14:22:50;101370.81;;;18.05;100.00
24666;BME280;29726;53.532;-1.478;2023-02-19T14:31:25;101367.63;;;17.97;100.00
24666;BME280;29726;53.532;-1.478;2023-02-19T14:34:17;101375.13;;;18.00;100.00
24666;BME280;29726;53.532;-1.478;2023-02-19T14:37:05;101381.06;;;18.02;100.00
24666;BME280;29726;53.532;-1.478;2023-02-19T14:39:53;101366.66;;;18.00;100.00
24666;BME280;29726;53.532;-1.478;2023-02-19T14:42:41;101373.28;;;17.97;100.00
24666;BME280;29726;53.532;-1.478;2023-02-19T14:45:27;101356.56;;;17.94;100.00
24666;BME280;29726;53.532;-1.478;2023-02-19T14:48:17;101353.81;;;17.99;100.00
24666;BME280;29726;53.532;-1.478;2023-02-19T14:51:07;101317.22;;;17.90;100.00
24666;BME280;29726;53.532;-1.478;2023-02-19T14:53:56;101305.91;;;17.90;100.00
24666;BME280;29726;53.532;-1.478;2023-02-19T14:56:44;101304.16;;;17.93;100.00
24666;BME280;29726;53.532;-1.478;2023-02-19T14:59:30;101302.81;;;17.88;100.00
24666;BME280;29726;53.532;-1.478;2023-02-19T15:02:15;101299.25;;;17.88;100.00
24666;BME280;29726;53.532;-1.478;2023-02-19T15:05:17;101294.06;;;17.86;100.00
24666;BME280;29726;53.532;-1.478;2023-02-19T15:08:11;101313.63;;;17.90;100.00
24666;BME280;29726;53.532;-1.478;2023-02-19T15:10:56;101305.38;;;17.86;100.00
24666;BME280;29726;53.532;-1.478;2023-02-19T15:13:40;101300.72;;;17.83;100.00
24666;BME280;29726;53.532;-1.478;2023-02-19T15:16:29;101305.59;;;17.83;100.00
24666;BME280;29726;53.532;-1.478;2023-02-19T15:19:15;101288.88;;;17.79;100.00
24666;BME280;29726;53.532;-1.478;2023-02-19T15:22:00;101294.81;;;17.81;100.00
24666;BME280;29726;53.532;-1.478;2023-02-19T15:24:45;101296.34;;;17.82;100.00
24666;BME280;29726;53.532;-1.478;2023-02-19T15:27:30;101271.38;;;17.75;100.00
24666;BME280;29726;53.532;-1.478;2023-02-19T15:30:24;101275.50;;;17.80;100.00
24666;BME280;29726;53.532;-1.478;2023-02-19T15:33:16;101222.81;;;17.46;100.00
24666;BME280;29726;53.532;-1.478;2023-02-19T15:36:06;101255.97;;;17.76;100.00
24666;BME280;29726;53.532;-1.478;2023-02-19T15:38:57;101250.94;;;17.60;100.00
24666;BME280;29726;53.532;-1.478;2023-02-19T15:41:41;101243.56;;;17.68;100.00
24666;BME280;29726;53.532;-1.478;2023-02-19T15:50:56;101238.91;;;17.65;100.00
24666;BME280;29726;53.532;-1.478;2023-02-19T15:53:55;101243.78;;;17.65;100.00
24666;BME280;29726;53.532;-1.478;2023-02-19T15:56:44;101194.56;;;17.26;100.00
24666;BME280;29726;53.532;-1.478;2023-02-19T15:59:41;101256.56;;;17.60;100.00